Yami!tiii — A8XN9 — position and weather

sailwx.info

Track history (hours):
 
Tides and Currents Weather Stations Pressure Air Temp Water Temp Dewpoint Dewpoint Depression Visibility Wind Speed Wind Dir Waves Ship Positions

Yami!tiii

Last reported at 2018-Jan-06 23:26 UTC. Time now 2018-Feb-19 00:00 UTC.
Position N 01°26' E 103°12'.
Warning: this ship's position is 43 days out of date.

Length 228 m; draft 8.5 m.

Type: Ship. MMSI: 635961366.

Date/timePositionNaut miles runAvg speedWind from/ knotsBaromVisibWave heightAir tempDewpointWater temp
2018-Jan-06 23:26N 01°26' E 103°12'715.4
2018-Jan-06 22:59N 01°22' E 103°17'715.1
2018-Jan-06 22:30N 01°17' E 103°22'714.3
2018-Jan-06 22:01N 01°13' E 103°28'714.5
2018-Jan-06 21:31N 01°11' E 103°35'714.0
2018-Jan-06 20:59N 01°09' E 103°42'713.5
2018-Jan-06 20:31N 01°11' E 103°49'815.7
2018-Jan-06 20:01N 01°14' E 103°56'714.0
2018-Jan-06 19:30N 01°16' E 104°03'  
Track history (hours):
 
Tides and Currents Weather Stations Pressure Air Temp Water Temp Dewpoint Dewpoint Depression Visibility Wind Speed Wind Dir Waves Ship Positions

Yami!tiii

Last reported at 2018-Jan-06 23:26 UTC. Time now 2018-Feb-19 00:00 UTC.
Position N 01°26' E 103°12'.
Warning: this ship's position is 43 days out of date.

Length 228 m; draft 8.5 m.

Type: Ship. MMSI: 635961366.

Date/timePositionNaut miles runAvg speedWind from/ knotsBaromVisibWave heightAir tempDewpointWater temp
2018-Jan-06 23:26N 01°26' E 103°12'715.4
2018-Jan-06 22:59N 01°22' E 103°17'715.1
2018-Jan-06 22:30N 01°17' E 103°22'714.3
2018-Jan-06 22:01N 01°13' E 103°28'714.5
2018-Jan-06 21:31N 01°11' E 103°35'714.0
2018-Jan-06 20:59N 01°09' E 103°42'713.5
2018-Jan-06 20:31N 01°11' E 103°49'815.7
2018-Jan-06 20:01N 01°14' E 103°56'714.0
2018-Jan-06 19:30N 01°16' E 104°03'  

Dump ship's entire track history